createdAt,value
2017-12-15T04:31:08.885Z,22.50
2017-12-15T04:33:36.490Z,15.32
2017-12-15T04:36:04.061Z,18.73
2017-12-15T04:38:31.685Z,17.25
2017-12-15T04:40:59.262Z,16.17
2017-12-15T04:43:26.833Z,12.15
2017-12-15T04:45:54.461Z,16.48
2017-12-15T04:48:22.043Z,17.37
2017-12-15T04:50:49.618Z,12.88
2017-12-15T04:53:17.236Z,10.98
2017-12-15T04:55:44.814Z,15.27
2017-12-15T04:58:12.385Z,12.50
2017-12-15T05:00:40.058Z,10.10
2017-12-15T05:03:07.608Z,13.62
2017-12-15T05:05:35.181Z,11.10
2017-12-15T05:08:02.781Z,13.13
2017-12-15T05:10:30.353Z,15.70
2017-12-15T05:12:57.969Z,22.00
2017-12-15T05:15:25.553Z,13.40
2017-12-15T05:17:53.897Z,16.52
2017-12-15T05:20:21.509Z,14.57
2017-12-15T05:22:49.085Z,12.30
2017-12-15T05:25:16.653Z,9.63
2017-12-15T05:27:44.249Z,13.05
2017-12-15T05:30:12.590Z,14.38
2017-12-15T05:32:40.211Z,19.62
2017-12-15T05:35:07.785Z,8.05
2017-12-15T05:37:35.361Z,10.90
2017-12-15T05:40:02.982Z,10.55
2017-12-15T05:42:30.558Z,11.35
2017-12-15T05:44:58.131Z,15.90
2017-12-15T05:47:25.729Z,12.45
2017-12-15T05:49:53.306Z,13.82
2017-12-15T05:52:21.650Z,14.95
2017-12-15T05:54:49.258Z,8.25
2017-12-15T05:57:16.834Z,9.60
2017-12-15T05:59:44.406Z,10.60
2017-12-15T06:02:12.045Z,16.37
2017-12-15T06:04:39.621Z,13.32
2017-12-15T06:07:07.193Z,14.75
2017-12-15T06:09:34.798Z,12.68
2017-12-15T06:12:03.138Z,16.62
2017-12-15T06:14:30.710Z,9.70
2017-12-15T06:16:58.334Z,13.85
2017-12-15T06:19:25.906Z,12.90
2017-12-15T06:21:53.485Z,10.80
2017-12-15T06:24:21.211Z,10.18
2017-12-15T06:26:48.785Z,10.52
2017-12-15T06:29:16.362Z,11.95
2017-12-15T06:31:43.990Z,11.15
2017-12-15T06:34:11.560Z,17.70
2017-12-15T06:36:39.137Z,19.35
2017-12-15T06:39:06.757Z,14.95
2017-12-15T06:41:34.338Z,18.77
2017-12-15T06:44:01.909Z,18.08
2017-12-15T06:46:29.549Z,16.00
2017-12-15T06:48:57.125Z,10.68
2017-12-15T06:51:24.705Z,12.57
2017-12-15T06:53:53.083Z,13.73
2017-12-15T06:56:21.425Z,12.45
2017-12-15T06:58:49.058Z,13.90
2017-12-15T07:01:17.405Z,9.30
2017-12-15T07:03:45.742Z,6.72
2017-12-15T07:06:13.310Z,2.78
2017-12-15T07:08:40.927Z,5.00
2017-12-15T07:11:08.513Z,11.35
2017-12-15T07:13:36.085Z,9.57
2017-12-15T07:16:03.696Z,2.92
2017-12-15T07:18:31.266Z,3.17
2017-12-15T07:20:58.833Z,4.20
2017-12-15T07:23:26.454Z,7.00
2017-12-15T07:25:54.802Z,4.30
2017-12-15T07:28:22.374Z,3.67
2017-12-15T07:30:49.993Z,3.25
2017-12-15T07:33:17.561Z,3.12
2017-12-15T07:35:45.129Z,3.58
2017-12-15T07:38:12.726Z,2.70
2017-12-15T07:40:41.061Z,2.92
2017-12-15T07:43:08.633Z,4.40
2017-12-15T07:45:36.229Z,5.47
2017-12-15T07:48:03.798Z,5.75
2017-12-15T07:50:32.232Z,7.25
2017-12-15T07:52:59.830Z,9.05
2017-12-15T07:55:27.401Z,9.07
2017-12-15T07:57:54.973Z,6.55
2017-12-15T08:00:22.565Z,7.25
2017-12-15T08:02:50.166Z,6.35
2017-12-15T08:05:17.737Z,6.75
2017-12-15T08:07:45.310Z,6.78
2017-12-15T08:10:12.905Z,5.50
2017-12-15T08:12:40.475Z,7.20
2017-12-15T08:15:08.862Z,5.90
2017-12-15T08:17:37.197Z,6.20
2017-12-15T08:20:04.779Z,4.37
2017-12-15T08:22:33.166Z,3.58
2017-12-15T08:25:01.501Z,5.40
2017-12-15T08:27:29.077Z,10.20
2017-12-15T08:29:56.691Z,7.22
2017-12-15T08:32:24.265Z,7.45
2017-12-15T08:34:51.846Z,7.37
2017-12-15T08:37:19.469Z,6.68
2017-12-15T08:39:47.041Z,3.55
2017-12-15T08:42:14.661Z,6.28
2017-12-15T08:44:42.997Z,7.50
2017-12-15T08:47:10.569Z,6.97
2017-12-15T08:49:38.979Z,5.85
2017-12-15T08:52:06.556Z,6.22
2017-12-15T08:54:34.130Z,5.80
2017-12-15T08:57:01.742Z,8.43
2017-12-15T08:59:30.082Z,5.28
2017-12-15T09:01:57.653Z,6.12
2017-12-15T09:04:25.245Z,4.80
2017-12-15T09:06:53.581Z,5.22
2017-12-15T09:09:21.185Z,6.00
2017-12-15T09:11:49.517Z,6.70
2017-12-15T09:14:17.086Z,7.93
2017-12-15T09:16:44.703Z,6.62
2017-12-15T09:19:12.275Z,6.75
2017-12-15T09:21:39.845Z,6.72
2017-12-15T09:24:07.453Z,7.93
2017-12-15T09:26:35.794Z,5.62
2017-12-15T09:29:03.366Z,5.43
2017-12-15T09:31:30.962Z,8.23
2017-12-15T09:33:58.542Z,6.47
2017-12-15T09:36:26.219Z,4.95
2017-12-15T09:38:53.765Z,5.87
2017-12-15T09:41:21.334Z,5.47
2017-12-15T09:43:48.931Z,5.47
2017-12-15T09:46:17.270Z,4.50
2017-12-15T09:48:44.837Z,5.28
2017-12-15T09:51:12.434Z,5.20
2017-12-15T09:53:40.771Z,7.93
2017-12-15T09:56:08.337Z,6.95
2017-12-15T09:58:35.956Z,8.55
2017-12-15T10:01:03.527Z,5.35
2017-12-15T10:03:31.098Z,9.70
2017-12-15T10:05:58.897Z,6.65
2017-12-15T10:08:27.233Z,8.05
2017-12-15T10:10:54.801Z,8.50
2017-12-15T10:13:22.417Z,11.43
2017-12-15T10:15:49.990Z,5.55
2017-12-15T10:18:17.562Z,7.50
2017-12-15T10:20:45.177Z,10.93
2017-12-15T10:23:13.534Z,9.27
2017-12-15T10:25:41.114Z,7.85
2017-12-15T10:28:09.494Z,5.05
2017-12-15T10:30:37.828Z,6.55
2017-12-15T10:33:05.399Z,2.10
2017-12-15T10:35:33.009Z,3.35
2017-12-15T10:38:00.581Z,4.53
2017-12-15T10:40:28.154Z,2.95
2017-12-15T10:42:55.753Z,2.50
2017-12-15T10:45:24.090Z,3.47
2017-12-15T10:47:51.664Z,3.80
2017-12-15T10:50:19.285Z,4.62
2017-12-15T10:52:46.852Z,3.95
2017-12-15T10:55:14.427Z,3.72
2017-12-15T10:57:42.030Z,6.82
2017-12-15T11:00:10.366Z,7.32
2017-12-15T11:02:37.981Z,3.28
2017-12-15T11:05:05.559Z,2.72
2017-12-15T11:07:33.129Z,3.35
2017-12-15T11:10:00.753Z,4.00
2017-12-15T11:12:28.330Z,7.18
2017-12-15T11:14:55.897Z,5.45
2017-12-15T11:17:23.505Z,3.10
2017-12-15T11:19:51.841Z,4.35
2017-12-15T11:22:19.413Z,9.82
2017-12-15T11:24:47.030Z,5.95
2017-12-15T11:27:14.601Z,5.97
2017-12-15T11:29:42.170Z,6.40
2017-12-15T11:32:09.786Z,6.55
2017-12-15T11:34:38.122Z,5.80
2017-12-15T11:37:05.700Z,5.62
2017-12-15T11:39:33.301Z,6.10
2017-12-15T11:42:00.877Z,5.82
2017-12-15T11:44:28.453Z,8.30
2017-12-15T11:46:56.083Z,7.03
2017-12-15T11:49:23.655Z,7.50
2017-12-15T11:51:51.230Z,7.03
2017-12-15T11:54:18.854Z,7.78
2017-12-15T11:56:46.423Z,9.55
2017-12-15T11:59:14.002Z,10.00
2017-12-15T12:01:41.614Z,50.55
2017-12-15T12:04:09.953Z,10.88
2017-12-15T12:06:37.522Z,6.62
2017-12-15T12:09:05.134Z,4.55
2017-12-15T12:11:32.705Z,9.10
2017-12-15T12:14:00.286Z,14.32
2017-12-15T12:16:27.890Z,11.77
2017-12-15T12:18:55.460Z,11.20
2017-12-15T12:21:23.079Z,14.20
2017-12-15T12:23:50.662Z,9.85
2017-12-15T12:26:18.238Z,7.00
2017-12-15T12:28:45.837Z,7.75
2017-12-15T12:31:13.405Z,5.35
2017-12-15T12:33:40.978Z,7.50
2017-12-15T12:36:09.351Z,4.32
2017-12-15T12:38:36.926Z,5.68
2017-12-15T12:41:05.261Z,8.80
2017-12-15T12:43:32.861Z,9.25
2017-12-15T12:46:01.201Z,5.57
2017-12-15T12:48:28.769Z,4.62
2017-12-15T12:50:56.361Z,4.82
2017-12-15T12:53:23.937Z,13.15
2017-12-15T12:55:51.505Z,5.45
2017-12-15T12:58:19.126Z,7.82
2017-12-15T13:00:47.465Z,5.62
2017-12-15T13:03:15.033Z,4.53
2017-12-15T13:05:42.625Z,5.55
2017-12-15T13:08:10.962Z,4.20
2017-12-15T13:10:38.533Z,4.53
2017-12-15T13:13:06.165Z,3.40
2017-12-15T13:15:33.738Z,5.40
2017-12-15T13:18:01.310Z,4.75
2017-12-15T13:20:28.902Z,4.95
2017-12-15T13:22:57.237Z,4.87
2017-12-15T13:25:24.805Z,5.40
2017-12-15T13:27:52.410Z,7.00
2017-12-15T13:30:19.977Z,3.10
2017-12-15T13:32:47.548Z,5.80
2017-12-15T13:35:15.200Z,2.62
2017-12-15T13:37:42.769Z,3.58
2017-12-15T13:40:10.370Z,5.90
2017-12-15T13:42:38.730Z,7.10
2017-12-15T13:45:06.302Z,5.97
2017-12-15T13:47:33.910Z,4.85
2017-12-15T13:50:01.477Z,2.78
2017-12-15T13:52:29.049Z,5.05
2017-12-15T13:54:56.659Z,6.85
2017-12-15T13:57:24.234Z,5.65
2017-12-15T13:59:51.857Z,5.20
2017-12-15T14:02:19.433Z,6.37
2017-12-15T14:04:47.770Z,3.95
2017-12-15T14:07:15.390Z,4.95
2017-12-15T14:09:42.957Z,5.37
2017-12-15T14:12:10.526Z,7.03
2017-12-15T14:14:38.145Z,9.90
2017-12-15T14:17:06.482Z,14.68
2017-12-15T14:19:34.053Z,18.35
2017-12-15T14:22:01.703Z,25.58
2017-12-15T14:24:29.282Z,16.92
2017-12-15T14:26:56.853Z,13.50
2017-12-15T14:29:25.214Z,11.25
2017-12-15T14:31:52.795Z,10.80
2017-12-15T14:34:20.398Z,10.88
2017-12-15T14:36:47.973Z,11.52
2017-12-15T14:39:15.550Z,10.55
2017-12-15T14:41:43.150Z,6.12
2017-12-15T14:44:10.761Z,10.85
2017-12-15T14:46:38.333Z,15.10
2017-12-15T14:49:06.678Z,12.20
2017-12-15T14:51:34.278Z,7.65
2017-12-15T14:54:02.644Z,7.03
2017-12-15T14:56:30.982Z,11.55
2017-12-15T14:58:58.565Z,11.30
2017-12-15T15:01:27.687Z,11.30
2017-12-15T15:03:56.025Z,21.05
2017-12-15T15:06:23.602Z,14.40
2017-12-15T15:08:51.230Z,22.40
2017-12-15T15:11:18.805Z,24.85
2017-12-15T15:13:46.379Z,21.30
2017-12-15T15:16:14.002Z,18.98
2017-12-15T15:18:41.578Z,21.25
2017-12-15T15:21:09.149Z,17.92
2017-12-15T15:23:36.769Z,14.38
2017-12-15T15:26:04.337Z,15.82
2017-12-15T15:28:31.910Z,13.55
2017-12-15T15:30:59.529Z,6.97
2017-12-15T15:33:27.110Z,12.48
2017-12-15T15:35:54.678Z,9.70
2017-12-15T15:38:22.273Z,9.43
2017-12-15T15:40:50.617Z,13.27
2017-12-15T15:43:18.243Z,14.73
2017-12-15T15:45:45.821Z,17.17
2017-12-15T15:48:13.401Z,28.42
2017-12-15T15:50:41.021Z,12.70
2017-12-15T15:53:08.595Z,11.23
2017-12-15T15:55:36.174Z,9.48
2017-12-15T15:58:03.782Z,16.60
2017-12-15T16:00:31.357Z,11.73
2017-12-15T16:02:58.953Z,10.98
2017-12-15T16:05:26.582Z,12.60
2017-12-15T16:07:54.156Z,11.77
2017-12-15T16:10:21.732Z,11.77
2017-12-15T16:12:49.359Z,8.02
2017-12-15T16:15:16.933Z,9.27
2017-12-15T16:17:44.589Z,11.00
2017-12-15T16:20:12.194Z,14.75
2017-12-15T16:22:40.540Z,21.50
2017-12-15T16:25:08.153Z,16.87
2017-12-15T16:27:35.734Z,12.37
2017-12-15T16:30:03.310Z,18.60
2017-12-15T16:32:30.914Z,14.35
2017-12-15T16:34:59.248Z,12.02
2017-12-15T16:37:26.838Z,15.43
2017-12-15T16:39:54.458Z,13.07
2017-12-15T16:42:22.114Z,12.30
2017-12-15T16:44:49.693Z,13.65
2017-12-15T16:47:17.309Z,12.18
2017-12-15T16:49:44.886Z,15.48
2017-12-15T16:52:12.466Z,25.20
2017-12-15T16:54:40.085Z,16.65
2017-12-15T16:57:07.678Z,21.67
2017-12-15T16:59:35.262Z,23.20
2017-12-15T17:02:02.946Z,31.48
2017-12-15T17:04:31.290Z,18.80
2017-12-15T17:06:58.869Z,23.67
2017-12-15T17:09:27.300Z,41.33
2017-12-15T17:11:54.877Z,38.38
2017-12-15T17:14:22.449Z,42.05
2017-12-15T17:16:50.077Z,41.00
2017-12-15T17:19:17.648Z,16.35
2017-12-15T17:21:45.225Z,14.63
2017-12-15T17:24:12.821Z,12.95
2017-12-15T17:26:40.398Z,11.15
2017-12-15T17:29:08.019Z,8.75
2017-12-15T17:31:36.363Z,13.55
2017-12-15T17:34:03.946Z,22.77
2017-12-15T17:36:31.561Z,42.83
2017-12-15T17:38:59.166Z,45.90
2017-12-15T17:41:26.802Z,41.28
2017-12-15T17:43:54.377Z,39.67
2017-12-15T17:46:21.957Z,47.75
2017-12-15T17:48:50.334Z,52.45
2017-12-15T17:51:18.678Z,52.47
2017-12-15T17:53:47.026Z,55.15
2017-12-15T17:56:14.650Z,44.90
2017-12-15T17:58:43.000Z,42.55
2017-12-15T18:01:10.586Z,46.75
2017-12-15T18:03:38.989Z,45.53
2017-12-15T18:06:06.569Z,47.58
2017-12-15T18:08:34.144Z,58.38
2017-12-15T18:11:01.757Z,45.97
2017-12-15T18:13:29.339Z,48.85
2017-12-15T18:15:56.922Z,42.25
2017-12-15T18:18:24.537Z,38.55
2017-12-15T18:20:52.219Z,37.85
2017-12-15T18:23:19.801Z,29.42
2017-12-15T18:25:47.401Z,43.03
2017-12-15T18:28:15.741Z,48.65
2017-12-15T18:30:43.322Z,46.72
2017-12-15T18:33:11.693Z,35.67
2017-12-15T18:35:39.320Z,35.30
2017-12-15T18:38:06.874Z,34.85
2017-12-15T18:40:34.684Z,38.85
2017-12-15T18:43:03.030Z,40.35
2017-12-15T18:45:30.617Z,35.80
2017-12-15T18:47:59.038Z,45.12
2017-12-15T18:50:26.622Z,43.15
2017-12-15T18:52:54.201Z,31.05
2017-12-15T18:55:21.806Z,26.35
2017-12-15T18:57:49.377Z,21.08
2017-12-15T19:00:17.006Z,23.55
2017-12-15T19:02:44.584Z,22.13
2017-12-15T19:05:12.166Z,22.20
2017-12-15T19:07:39.797Z,17.58
2017-12-15T19:10:07.373Z,16.35
2017-12-15T19:12:34.954Z,23.05
2017-12-15T19:15:02.582Z,16.85
2017-12-15T19:17:30.154Z,21.23
2017-12-15T19:19:57.733Z,21.00
2017-12-15T19:22:26.105Z,19.73
2017-12-15T19:24:53.689Z,20.50
2017-12-15T19:27:21.317Z,23.75
2017-12-15T19:29:48.964Z,22.23
2017-12-15T19:32:16.546Z,18.52
2017-12-15T19:34:44.165Z,17.48
2017-12-15T19:37:11.754Z,21.15
2017-12-15T19:39:39.338Z,18.23
2017-12-15T19:42:06.941Z,26.17
2017-12-15T19:44:34.530Z,31.83
2017-12-15T19:47:02.113Z,40.42
2017-12-15T19:49:29.726Z,41.80
2017-12-15T19:51:57.306Z,45.12
2017-12-15T19:54:24.886Z,33.08
2017-12-15T19:56:52.506Z,28.85
2017-12-15T19:59:20.094Z,30.98
2017-12-15T20:01:47.674Z,32.75
2017-12-15T20:04:15.355Z,29.25
2017-12-15T20:06:43.700Z,34.83
2017-12-15T20:09:11.286Z,26.90
2017-12-15T20:11:39.686Z,24.90
2017-12-15T20:14:07.275Z,30.52
2017-12-15T20:16:34.883Z,44.75
2017-12-15T20:19:03.269Z,36.78
2017-12-15T20:21:30.849Z,29.00
2017-12-15T20:23:58.435Z,26.27
2017-12-15T20:26:26.065Z,33.17
2017-12-15T20:28:53.646Z,33.15
2017-12-15T20:31:21.225Z,32.70
2017-12-15T20:33:48.854Z,33.65
2017-12-15T20:36:16.436Z,36.20
2017-12-15T20:38:44.021Z,32.65
2017-12-15T20:41:12.398Z,38.53
2017-12-15T20:43:40.754Z,38.50
2017-12-15T20:46:09.106Z,40.92
2017-12-15T20:48:36.754Z,38.03
2017-12-15T20:51:04.428Z,45.22
2017-12-15T20:53:32.010Z,37.60
2017-12-15T20:55:59.642Z,42.25
2017-12-15T20:58:27.226Z,43.60
2017-12-15T21:00:54.802Z,40.35
2017-12-15T21:03:22.441Z,36.92
2017-12-15T21:05:50.017Z,39.25
2017-12-15T21:08:17.600Z,38.47
2017-12-15T21:10:45.345Z,39.30
2017-12-15T21:13:13.898Z,40.70
2017-12-15T21:15:41.472Z,39.47
2017-12-15T21:18:10.178Z,32.65
2017-12-15T21:20:38.522Z,39.33
2017-12-15T21:23:06.101Z,37.10
2017-12-15T21:25:34.474Z,45.40
2017-12-15T21:28:02.054Z,32.70
2017-12-15T21:30:30.397Z,35.05
2017-12-15T21:32:58.027Z,32.95
2017-12-15T21:35:25.614Z,46.08
2017-12-15T21:37:53.194Z,35.35
2017-12-15T21:40:21.573Z,34.97
2017-12-15T21:42:49.913Z,39.20
2017-12-15T21:45:17.499Z,33.45
2017-12-15T21:47:45.106Z,36.15
2017-12-15T21:50:12.686Z,29.65
2017-12-15T21:52:40.271Z,33.00
2017-12-15T21:55:07.888Z,36.03
2017-12-15T21:57:35.473Z,37.90
2017-12-15T22:00:03.060Z,42.53
2017-12-15T22:02:31.470Z,38.40
2017-12-15T22:04:59.046Z,36.42
2017-12-15T22:07:26.633Z,34.75
2017-12-15T22:09:54.249Z,40.72
2017-12-15T22:12:21.834Z,38.33
2017-12-15T22:14:49.418Z,35.05
2017-12-15T22:17:17.173Z,38.75
2017-12-15T22:19:44.778Z,36.60
2017-12-15T22:22:12.353Z,44.88
2017-12-15T22:24:39.981Z,43.53
2017-12-15T22:27:08.321Z,37.20
2017-12-15T22:29:35.897Z,34.92
2017-12-15T22:32:03.530Z,38.42
2017-12-15T22:34:31.106Z,44.20
2017-12-15T22:36:58.690Z,40.38
2017-12-15T22:39:27.061Z,38.05
2017-12-15T22:41:55.410Z,37.53
2017-12-15T22:44:22.985Z,42.72
2017-12-15T22:46:50.622Z,39.83
2017-12-15T22:49:18.201Z,49.47
2017-12-15T22:51:45.777Z,43.53
2017-12-15T22:54:14.166Z,43.45
2017-12-15T22:56:42.505Z,41.00
2017-12-15T22:59:10.088Z,41.22
2017-12-15T23:01:38.457Z,39.53
2017-12-15T23:04:06.038Z,42.30
2017-12-15T23:06:34.434Z,41.92
2017-12-15T23:09:02.018Z,36.70
2017-12-15T23:11:29.598Z,39.78
2017-12-15T23:13:57.226Z,43.78
2017-12-15T23:16:24.805Z,38.67
2017-12-15T23:18:52.377Z,38.35
2017-12-15T23:21:20.014Z,39.88
2017-12-15T23:23:47.592Z,41.50
2017-12-15T23:26:15.178Z,41.22
2017-12-15T23:28:43.541Z,41.92
